createdAt,value
2019-01-27T00:00:22.762Z,504.53
2019-01-27T00:01:22.762Z,507.83
2019-01-27T00:02:22.730Z,504.37
2019-01-27T00:03:22.726Z,503.14
2019-01-27T00:04:22.719Z,509.38
2019-01-27T00:05:22.696Z,507.36
2019-01-27T00:06:22.698Z,503.29
2019-01-27T00:07:22.679Z,512.00
2019-01-27T00:08:22.678Z,511.93
2019-01-27T00:09:22.650Z,499.30
2019-01-27T00:10:22.640Z,495.32
2019-01-27T00:11:22.629Z,499.02
2019-01-27T00:12:22.623Z,509.69
2019-01-27T00:13:22.632Z,506.34
2019-01-27T00:14:22.606Z,506.34
2019-01-27T00:15:22.589Z,500.33
2019-01-27T00:16:22.578Z,499.93
2019-01-27T00:17:22.570Z,508.21
2019-01-27T00:18:22.582Z,505.04
2019-01-27T00:19:22.548Z,501.56
2019-01-27T00:20:22.540Z,502.04
2019-01-27T00:21:22.526Z,507.14
2019-01-27T00:22:22.522Z,493.99
2019-01-27T00:23:22.516Z,498.21
2019-01-27T00:24:22.498Z,508.19
2019-01-27T00:25:22.475Z,511.11
2019-01-27T00:26:23.066Z,513.54
2019-01-27T00:27:22.459Z,515.44
2019-01-27T00:28:23.568Z,501.98
2019-01-27T00:29:22.453Z,501.03
2019-01-27T00:30:22.435Z,503.26
2019-01-27T00:31:22.433Z,507.94
2019-01-27T00:32:22.411Z,507.83
2019-01-27T00:33:22.430Z,497.85
2019-01-27T00:34:22.399Z,513.04
2019-01-27T00:35:22.391Z,504.54
2019-01-27T00:36:22.387Z,496.26
2019-01-27T00:37:22.353Z,507.90
2019-01-27T00:38:22.348Z,505.37
2019-01-27T00:39:22.348Z,499.93
2019-01-27T00:40:22.327Z,504.50
2019-01-27T00:41:22.321Z,506.79
2019-01-27T00:42:22.304Z,502.85
2019-01-27T00:43:22.291Z,498.25
2019-01-27T00:44:22.313Z,496.92
2019-01-27T00:45:22.312Z,493.13
2019-01-27T00:46:22.268Z,506.04
2019-01-27T00:47:22.253Z,511.08
2019-01-27T00:48:22.249Z,509.18
2019-01-27T00:49:22.252Z,493.09
2019-01-27T00:50:22.224Z,503.80
2019-01-27T00:51:22.234Z,496.16
2019-01-27T00:52:22.211Z,501.16
2019-01-27T00:53:22.210Z,496.42
2019-01-27T00:54:22.204Z,509.88
2019-01-27T00:55:22.175Z,506.18
2019-01-27T00:56:22.180Z,512.54
2019-01-27T00:57:22.172Z,508.56
2019-01-27T00:58:22.145Z,499.60
2019-01-27T00:59:22.151Z,512.62
2019-01-27T01:00:22.115Z,513.50
2019-01-27T01:01:22.115Z,511.57
2019-01-27T01:02:22.096Z,506.55
2019-01-27T01:03:22.090Z,499.80
2019-01-27T01:04:22.105Z,500.34
2019-01-27T01:05:22.074Z,507.98
2019-01-27T01:06:22.050Z,502.45
2019-01-27T01:07:22.047Z,498.00
2019-01-27T01:08:22.029Z,496.11
2019-01-27T01:09:22.042Z,493.74
2019-01-27T01:10:22.025Z,506.91
2019-01-27T01:11:22.001Z,495.60
2019-01-27T01:12:21.987Z,502.10
2019-01-27T01:13:21.985Z,503.09
2019-01-27T01:14:21.985Z,496.23
2019-01-27T01:15:21.964Z,497.13
2019-01-27T01:16:21.952Z,493.06
2019-01-27T01:17:21.937Z,498.44
2019-01-27T01:18:21.926Z,498.01
2019-01-27T01:19:21.952Z,503.87
2019-01-27T01:20:21.910Z,508.17
2019-01-27T01:21:21.899Z,507.86
2019-01-27T01:22:21.900Z,501.53
2019-01-27T01:23:21.872Z,503.13
2019-01-27T01:24:21.885Z,498.54
2019-01-27T01:25:21.856Z,511.41
2019-01-27T01:26:21.841Z,515.21
2019-01-27T01:27:21.839Z,504.84
2019-01-27T01:28:21.821Z,510.12
2019-01-27T01:29:21.834Z,501.84
2019-01-27T01:30:21.803Z,507.29
2019-01-27T01:31:21.799Z,500.15
2019-01-27T01:32:21.780Z,495.19
2019-01-27T01:33:21.777Z,511.32
2019-01-27T01:34:21.784Z,498.58
2019-01-27T01:35:21.739Z,498.92
2019-01-27T01:36:21.732Z,496.36
2019-01-27T01:37:21.731Z,510.35
2019-01-27T01:38:21.712Z,507.18
2019-01-27T01:39:21.718Z,502.54
2019-01-27T01:40:21.689Z,502.53
2019-01-27T01:41:21.679Z,510.76
2019-01-27T01:42:21.684Z,513.68
2019-01-27T01:43:21.664Z,508.83
2019-01-27T01:44:21.672Z,507.90
2019-01-27T01:45:21.643Z,501.06
2019-01-27T01:46:21.639Z,496.68
2019-01-27T01:47:21.617Z,501.81
2019-01-27T01:48:21.615Z,505.62
2019-01-27T01:49:21.617Z,506.27
2019-01-27T01:50:21.601Z,500.31
2019-01-27T01:51:21.573Z,491.76
2019-01-27T01:52:21.582Z,500.33
2019-01-27T01:53:21.562Z,506.33
2019-01-27T01:54:21.592Z,510.66
2019-01-27T01:55:21.547Z,504.00
2019-01-27T01:56:21.523Z,505.00
2019-01-27T01:57:21.524Z,503.08
2019-01-27T01:58:21.510Z,500.41
2019-01-27T01:59:21.523Z,496.95
2019-01-27T02:00:21.487Z,504.08
2019-01-27T02:01:21.482Z,512.28
2019-01-27T02:02:21.483Z,512.58
2019-01-27T02:03:21.455Z,507.65
2019-01-27T02:04:21.459Z,507.80
2019-01-27T02:05:21.431Z,511.78
2019-01-27T02:06:21.426Z,499.32
2019-01-27T02:07:21.411Z,503.43
2019-01-27T02:08:21.409Z,496.70
2019-01-27T02:09:21.419Z,511.65
2019-01-27T02:10:21.376Z,508.74
2019-01-27T02:11:21.367Z,497.74
2019-01-27T02:12:21.371Z,512.02
2019-01-27T02:13:21.365Z,492.92
2019-01-27T02:14:21.353Z,499.93
2019-01-27T02:15:21.329Z,498.64
2019-01-27T02:16:21.317Z,510.19
2019-01-27T02:17:21.304Z,498.39
2019-01-27T02:18:21.299Z,513.33
2019-01-27T02:19:21.305Z,498.79
2019-01-27T02:20:21.297Z,497.25
2019-01-27T02:21:21.272Z,508.05
2019-01-27T02:22:21.255Z,500.51
2019-01-27T02:23:21.247Z,511.23
2019-01-27T02:24:21.247Z,499.78
2019-01-27T02:25:21.229Z,510.37
2019-01-27T02:26:21.218Z,510.35
2019-01-27T02:27:21.223Z,501.40
2019-01-27T02:28:21.190Z,501.46
2019-01-27T02:29:21.208Z,505.07
2019-01-27T02:30:21.185Z,506.38
2019-01-27T02:31:21.158Z,510.20
2019-01-27T02:32:21.154Z,501.80
2019-01-27T02:33:21.146Z,506.63
2019-01-27T02:34:21.156Z,509.57
2019-01-27T02:35:21.114Z,503.77
2019-01-27T02:36:21.110Z,499.55
2019-01-27T02:37:21.106Z,503.13
2019-01-27T02:38:21.087Z,502.15
2019-01-27T02:39:21.123Z,501.00
2019-01-27T02:40:21.071Z,503.06
2019-01-27T02:41:21.054Z,513.22
2019-01-27T02:42:21.039Z,505.82
2019-01-27T02:43:21.035Z,507.29
2019-01-27T02:44:21.034Z,511.50
2019-01-27T02:45:21.031Z,498.65
2019-01-27T02:46:21.002Z,501.00
2019-01-27T02:47:21.040Z,503.16
2019-01-27T02:48:21.002Z,508.24
2019-01-27T02:49:20.995Z,504.00
2019-01-27T02:50:20.978Z,510.58
2019-01-27T02:51:20.973Z,509.85
2019-01-27T02:52:20.944Z,504.36
2019-01-27T02:53:20.948Z,505.80
2019-01-27T02:54:20.935Z,501.94
2019-01-27T02:55:20.923Z,507.44
2019-01-27T02:56:20.953Z,510.75
2019-01-27T02:57:20.908Z,508.00
2019-01-27T02:58:20.877Z,503.14
2019-01-27T02:59:20.875Z,504.58
2019-01-27T03:00:20.892Z,506.15
2019-01-27T03:01:20.856Z,501.54
2019-01-27T03:02:20.850Z,511.15
2019-01-27T03:03:20.843Z,502.65
2019-01-27T03:04:20.820Z,498.25
2019-01-27T03:05:20.822Z,503.16
2019-01-27T03:06:20.801Z,505.17
2019-01-27T03:07:20.791Z,498.19
2019-01-27T03:08:20.788Z,505.96
2019-01-27T03:09:20.756Z,508.84
2019-01-27T03:10:20.761Z,494.47
2019-01-27T03:11:20.755Z,506.13
2019-01-27T03:12:20.732Z,503.76
2019-01-27T03:13:20.732Z,513.15
2019-01-27T03:14:20.719Z,503.46
2019-01-27T03:15:20.732Z,501.63
2019-01-27T03:16:20.703Z,504.69
2019-01-27T03:17:20.690Z,500.66
2019-01-27T03:18:20.675Z,504.94
2019-01-27T03:19:20.669Z,505.14
2019-01-27T03:20:20.665Z,511.78
2019-01-27T03:21:27.671Z,509.11
2019-01-27T03:22:20.628Z,510.13
2019-01-27T03:23:20.608Z,514.31
2019-01-27T03:24:20.615Z,510.94
2019-01-27T03:25:27.677Z,497.91
2019-01-27T03:26:28.633Z,500.31
2019-01-27T03:27:28.205Z,500.07
2019-01-27T03:28:28.622Z,504.00
2019-01-27T03:29:20.551Z,510.73
2019-01-27T03:30:27.657Z,504.97
2019-01-27T03:31:29.298Z,510.27
2019-01-27T03:32:28.579Z,512.30
2019-01-27T03:33:27.569Z,503.57
2019-01-27T03:34:27.565Z,501.28
2019-01-27T03:36:31.141Z,497.77
2019-01-27T03:37:31.110Z,509.16
2019-01-27T03:38:31.093Z,510.03
2019-01-27T03:39:31.084Z,509.14
2019-01-27T03:40:31.083Z,499.99
2019-01-27T03:41:31.048Z,503.35
2019-01-27T03:42:31.054Z,500.64
2019-01-27T03:43:31.051Z,515.54
2019-01-27T03:44:31.026Z,510.25
2019-01-27T03:45:31.022Z,509.15
2019-01-27T03:46:30.999Z,499.63
2019-01-27T03:47:30.991Z,505.33
2019-01-27T03:48:30.992Z,508.46
2019-01-27T03:49:30.972Z,504.36
2019-01-27T03:50:30.987Z,507.12
2019-01-27T03:51:30.943Z,504.87
2019-01-27T03:52:30.934Z,502.76
2019-01-27T03:53:30.926Z,504.52
2019-01-27T03:54:30.918Z,506.33
2019-01-27T03:55:30.925Z,503.89
2019-01-27T03:56:30.899Z,504.52
2019-01-27T03:57:30.881Z,502.44
2019-01-27T03:58:30.870Z,516.25
2019-01-27T03:59:30.873Z,507.98
2019-01-27T04:00:30.887Z,512.11
2019-01-27T04:01:30.853Z,512.74
2019-01-27T04:02:30.830Z,500.63
2019-01-27T04:03:30.828Z,505.09
2019-01-27T04:04:30.804Z,507.91
2019-01-27T04:05:30.822Z,505.00
2019-01-27T04:06:30.793Z,505.40
2019-01-27T04:07:30.778Z,506.37
2019-01-27T04:08:30.775Z,500.12
2019-01-27T04:09:30.765Z,501.68
2019-01-27T04:10:30.763Z,499.38
2019-01-27T04:11:30.735Z,502.17
2019-01-27T04:12:30.732Z,509.05
2019-01-27T04:13:30.745Z,504.53
2019-01-27T04:14:30.713Z,495.43
2019-01-27T04:15:30.707Z,504.86
2019-01-27T04:16:30.679Z,501.33
2019-01-27T04:17:30.685Z,504.37
2019-01-27T04:18:30.666Z,511.10
2019-01-27T04:19:30.678Z,496.55
2019-01-27T04:20:30.667Z,508.46
2019-01-27T04:21:30.638Z,508.14
2019-01-27T04:22:30.616Z,508.31
2019-01-27T04:23:30.630Z,501.92
2019-01-27T04:24:30.599Z,513.53
2019-01-27T04:25:30.617Z,503.49
2019-01-27T04:26:30.592Z,499.20
2019-01-27T04:27:30.588Z,513.64
2019-01-27T04:28:30.569Z,501.29
2019-01-27T04:29:30.548Z,507.91
2019-01-27T04:30:30.559Z,506.89
2019-01-27T04:31:30.543Z,509.39
2019-01-27T04:32:30.523Z,507.93
2019-01-27T04:33:30.529Z,509.76
2019-01-27T04:34:30.504Z,498.58
2019-01-27T04:35:30.528Z,506.16
2019-01-27T04:36:30.479Z,508.13
2019-01-27T04:37:30.483Z,505.74
2019-01-27T04:38:30.462Z,503.28
2019-01-27T04:39:30.468Z,512.99
2019-01-27T04:40:30.449Z,502.90
2019-01-27T04:41:30.483Z,499.89
2019-01-27T04:42:30.423Z,510.29
2019-01-27T04:43:30.404Z,501.19
2019-01-27T04:44:30.409Z,502.65
2019-01-27T04:45:30.420Z,503.08
2019-01-27T04:46:30.365Z,507.60
2019-01-27T04:47:30.360Z,509.76
2019-01-27T04:48:30.356Z,504.18
2019-01-27T04:49:30.343Z,506.23
2019-01-27T04:50:30.345Z,506.79
2019-01-27T04:51:30.323Z,496.96
2019-01-27T04:52:30.321Z,508.38
2019-01-27T04:53:30.293Z,511.83
2019-01-27T04:54:30.287Z,513.38
2019-01-27T04:55:30.300Z,502.83
2019-01-27T04:56:30.271Z,495.58
2019-01-27T04:57:30.251Z,516.68
2019-01-27T04:58:30.247Z,503.11
2019-01-27T04:59:30.227Z,513.24
2019-01-27T05:00:30.246Z,506.64
2019-01-27T05:01:30.224Z,508.24
2019-01-27T05:02:30.211Z,513.28
2019-01-27T05:03:30.203Z,511.86
2019-01-27T05:04:30.190Z,506.22
2019-01-27T05:05:30.202Z,509.10
2019-01-27T05:06:30.168Z,513.22
2019-01-27T05:07:30.165Z,501.54
2019-01-27T05:08:30.146Z,507.14
2019-01-27T05:09:30.126Z,509.09
2019-01-27T05:10:30.140Z,509.19
2019-01-27T05:11:30.132Z,514.00
2019-01-27T05:12:30.108Z,502.74
2019-01-27T05:13:30.089Z,501.33
2019-01-27T05:14:30.079Z,515.57
2019-01-27T05:15:30.064Z,503.62
2019-01-27T05:16:30.072Z,509.13
2019-01-27T05:17:30.047Z,503.70
2019-01-27T05:18:30.034Z,508.44
2019-01-27T05:19:30.025Z,504.83
2019-01-27T05:20:30.013Z,504.99
2019-01-27T05:21:30.022Z,510.39
2019-01-27T05:22:30.024Z,509.16
2019-01-27T05:23:29.989Z,507.64
2019-01-27T05:24:29.969Z,506.99
2019-01-27T05:25:29.975Z,510.18
2019-01-27T05:26:29.991Z,508.48
2019-01-27T05:27:29.943Z,510.24
2019-01-27T05:28:29.927Z,509.09
2019-01-27T05:29:29.919Z,511.34
2019-01-27T05:30:29.903Z,508.15
2019-01-27T05:31:29.909Z,502.32
2019-01-27T05:32:29.969Z,506.73
2019-01-27T05:33:29.879Z,505.99
2019-01-27T05:34:29.869Z,508.00
2019-01-27T05:35:29.865Z,511.75
2019-01-27T05:36:29.866Z,506.49
2019-01-27T05:37:29.834Z,510.63
2019-01-27T05:38:29.827Z,507.83
2019-01-27T05:39:29.815Z,499.46
2019-01-27T05:40:29.803Z,520.11
2019-01-27T05:41:29.808Z,507.96
2019-01-27T05:42:29.783Z,514.61
2019-01-27T05:43:29.777Z,515.05
2019-01-27T05:44:29.767Z,513.94
2019-01-27T05:45:29.751Z,506.09
2019-01-27T05:46:37.819Z,505.50
2019-01-27T05:47:29.740Z,509.89
2019-01-27T05:48:29.735Z,508.59
2019-01-27T05:49:29.733Z,515.16
2019-01-27T05:50:29.699Z,504.92
2019-01-27T05:51:30.025Z,508.81
2019-01-27T05:52:29.684Z,514.34
2019-01-27T05:53:29.682Z,507.13
2019-01-27T05:54:29.684Z,510.96
2019-01-27T05:55:29.649Z,507.48
2019-01-27T05:56:29.658Z,513.16
2019-01-27T05:57:29.642Z,511.65
2019-01-27T05:58:29.622Z,512.47
2019-01-27T05:59:29.609Z,516.96
2019-01-27T06:00:29.610Z,508.74
2019-01-27T06:01:29.598Z,505.15
2019-01-27T06:02:29.581Z,507.85
2019-01-27T06:03:29.573Z,515.26
2019-01-27T06:04:29.575Z,513.98
2019-01-27T06:05:29.547Z,514.90
2019-01-27T06:06:29.562Z,507.81
2019-01-27T06:07:29.522Z,507.56
2019-01-27T06:08:29.508Z,516.90
2019-01-27T06:09:29.502Z,510.57
2019-01-27T06:10:29.502Z,510.48
2019-01-27T06:11:29.487Z,512.68
2019-01-27T06:12:29.467Z,517.72
2019-01-27T06:13:29.451Z,517.45
2019-01-27T06:14:29.448Z,507.19
2019-01-27T06:15:29.462Z,511.11
2019-01-27T06:16:29.444Z,514.53
2019-01-27T06:17:29.409Z,512.34
2019-01-27T06:18:29.414Z,511.57
2019-01-27T06:19:29.402Z,512.34
2019-01-27T06:20:29.384Z,507.49
2019-01-27T06:21:29.412Z,515.05
2019-01-27T06:22:29.366Z,506.53
2019-01-27T06:23:29.352Z,515.89
2019-01-27T06:24:29.349Z,511.39
2019-01-27T06:25:29.343Z,509.83
2019-01-27T06:26:29.382Z,518.53
2019-01-27T06:27:29.326Z,511.40
2019-01-27T06:28:29.299Z,512.34
2019-01-27T06:29:29.292Z,508.88
2019-01-27T06:30:29.288Z,515.52
2019-01-27T06:31:29.287Z,510.49
2019-01-27T06:32:29.266Z,513.18
2019-01-27T06:33:29.258Z,512.28
2019-01-27T06:34:29.257Z,517.35
2019-01-27T06:35:29.257Z,514.42
2019-01-27T06:36:29.525Z,514.90
2019-01-27T06:37:29.207Z,512.36
2019-01-27T06:38:29.195Z,518.35
2019-01-27T06:39:29.187Z,511.71
2019-01-27T06:40:29.177Z,514.69
2019-01-27T06:41:29.178Z,511.29
2019-01-27T06:42:29.179Z,510.85
2019-01-27T06:43:29.141Z,518.38
2019-01-27T06:44:29.134Z,513.64
2019-01-27T06:45:29.121Z,516.98
2019-01-27T06:46:29.128Z,511.97
2019-01-27T06:47:29.110Z,519.35
2019-01-27T06:48:29.111Z,515.82
2019-01-27T06:49:29.084Z,516.70
2019-01-27T06:50:29.061Z,514.02
2019-01-27T06:51:29.075Z,517.90
2019-01-27T06:52:29.061Z,513.43
2019-01-27T06:53:29.057Z,516.04
2019-01-27T06:54:29.028Z,510.05
2019-01-27T06:55:29.033Z,510.05
2019-01-27T06:56:29.025Z,511.58
2019-01-27T06:57:28.994Z,515.68
2019-01-27T06:58:28.988Z,513.93
2019-01-27T06:59:28.971Z,510.54
2019-01-27T07:00:28.958Z,512.04
2019-01-27T07:01:28.962Z,515.30
2019-01-27T07:02:29.651Z,514.63
2019-01-27T07:03:28.934Z,513.52
2019-01-27T07:04:28.938Z,510.65
2019-01-27T07:05:28.913Z,513.08
2019-01-27T07:06:28.918Z,514.00
2019-01-27T07:07:28.894Z,513.86
2019-01-27T07:08:28.886Z,517.98
2019-01-27T07:09:28.877Z,511.88
2019-01-27T07:10:28.867Z,519.45
2019-01-27T07:11:28.875Z,513.31
2019-01-27T07:12:28.829Z,512.76
2019-01-27T07:13:28.830Z,519.28
2019-01-27T07:14:28.820Z,516.01
2019-01-27T07:15:28.806Z,513.08
2019-01-27T07:16:28.801Z,512.71
2019-01-27T07:17:28.804Z,518.81
2019-01-27T07:18:28.773Z,513.99
2019-01-27T07:19:28.767Z,510.83
2019-01-27T07:20:28.767Z,523.42
2019-01-27T07:21:28.741Z,521.66
2019-01-27T07:22:28.777Z,517.54
2019-01-27T07:23:36.761Z,516.52
2019-01-27T07:24:35.775Z,517.50
2019-01-27T07:25:28.708Z,519.22
2019-01-27T07:26:28.696Z,514.98
2019-01-27T07:27:28.697Z,515.58
2019-01-27T07:28:28.694Z,509.03
2019-01-27T07:29:28.678Z,512.28
2019-01-27T07:30:28.663Z,518.93
2019-01-27T07:31:28.636Z,516.26
2019-01-27T07:32:28.643Z,513.62
2019-01-27T07:33:28.641Z,510.67
2019-01-27T07:34:28.616Z,518.48
2019-01-27T07:35:28.594Z,516.92
2019-01-27T07:36:28.586Z,519.14
2019-01-27T07:37:28.600Z,513.40
2019-01-27T07:38:28.586Z,508.06
2019-01-27T07:39:28.561Z,514.19
2019-01-27T07:40:28.551Z,516.32
2019-01-27T07:41:28.546Z,512.76
2019-01-27T07:42:28.533Z,514.63
2019-01-27T07:43:28.512Z,514.09
2019-01-27T07:44:28.527Z,514.47
2019-01-27T07:45:28.493Z,512.14
2019-01-27T07:46:28.502Z,514.82
2019-01-27T07:47:28.497Z,518.38
2019-01-27T07:48:28.468Z,517.95
2019-01-27T07:49:28.446Z,508.66
2019-01-27T07:50:28.448Z,507.49
2019-01-27T07:51:28.438Z,509.66
2019-01-27T07:52:28.444Z,517.73
2019-01-27T07:53:28.407Z,512.33
2019-01-27T07:54:28.407Z,515.20
2019-01-27T07:55:28.382Z,511.84
2019-01-27T07:56:28.373Z,518.33
2019-01-27T07:57:28.375Z,513.56
2019-01-27T07:58:28.362Z,513.19
2019-01-27T07:59:28.343Z,515.90
2019-01-27T08:00:28.329Z,509.63
2019-01-27T08:01:28.321Z,513.51
2019-01-27T08:02:28.333Z,509.89
2019-01-27T08:03:28.316Z,511.43
2019-01-27T08:04:28.296Z,517.90
2019-01-27T08:05:28.277Z,514.69
2019-01-27T08:06:28.282Z,513.37
2019-01-27T08:07:28.273Z,516.48
2019-01-27T08:08:28.256Z,509.87
2019-01-27T08:09:28.262Z,512.85
2019-01-27T08:10:28.235Z,518.85
2019-01-27T08:11:28.227Z,505.86
2019-01-27T08:12:28.230Z,516.38
2019-01-27T08:13:28.212Z,513.66
2019-01-27T08:14:28.196Z,514.64
2019-01-27T08:15:28.192Z,515.22
2019-01-27T08:16:28.167Z,512.89
2019-01-27T08:17:28.166Z,513.50
2019-01-27T08:18:28.152Z,511.34
2019-01-27T08:19:28.136Z,514.58
2019-01-27T08:20:28.134Z,514.41
2019-01-27T08:21:28.117Z,512.51
2019-01-27T08:22:28.114Z,522.36
2019-01-27T08:23:28.094Z,512.88
2019-01-27T08:24:28.080Z,509.74
2019-01-27T08:25:28.078Z,519.81
2019-01-27T08:26:28.085Z,515.32
2019-01-27T08:27:28.073Z,515.71
2019-01-27T08:28:28.037Z,516.66
2019-01-27T08:29:28.035Z,513.03
2019-01-27T08:30:28.023Z,517.03
2019-01-27T08:31:28.025Z,519.77
2019-01-27T08:32:28.028Z,518.39
2019-01-27T08:33:27.995Z,518.93
2019-01-27T08:34:27.987Z,511.56
2019-01-27T08:35:27.973Z,517.70
2019-01-27T08:36:27.965Z,517.50
2019-01-27T08:37:27.963Z,512.16
2019-01-27T08:38:27.937Z,519.54
2019-01-27T08:39:27.934Z,514.27
2019-01-27T08:40:27.913Z,516.62
2019-01-27T08:41:27.913Z,510.88
2019-01-27T08:42:27.919Z,516.94
2019-01-27T08:43:27.889Z,509.71
2019-01-27T08:44:35.912Z,514.82
2019-01-27T08:45:36.138Z,509.86
2019-01-27T08:46:27.844Z,517.79
2019-01-27T08:47:27.852Z,515.85
2019-01-27T08:48:27.847Z,516.44
2019-01-27T08:49:27.817Z,516.91
2019-01-27T08:50:27.805Z,514.36
2019-01-27T08:51:27.812Z,514.17
2019-01-27T08:52:27.817Z,517.59
2019-01-27T08:53:27.817Z,511.46
2019-01-27T08:54:27.773Z,510.69
2019-01-27T08:55:27.752Z,522.30
2019-01-27T08:56:27.748Z,514.10
2019-01-27T08:57:27.753Z,514.58
2019-01-27T08:58:27.724Z,516.35
2019-01-27T08:59:27.744Z,519.68
2019-01-27T09:00:27.720Z,512.11
2019-01-27T09:01:27.700Z,502.11
2019-01-27T09:02:27.702Z,512.35
2019-01-27T09:03:27.684Z,517.45
2019-01-27T09:04:27.679Z,517.88
2019-01-27T09:05:27.671Z,522.17
2019-01-27T09:06:27.639Z,511.77
2019-01-27T09:07:27.639Z,522.49
2019-01-27T09:08:27.629Z,516.33
2019-01-27T09:09:27.604Z,511.86
2019-01-27T09:10:27.613Z,518.70
2019-01-27T09:11:27.603Z,518.31
2019-01-27T09:12:27.594Z,516.06
2019-01-27T09:13:27.566Z,524.97
2019-01-27T09:14:27.565Z,516.07
2019-01-27T09:15:27.545Z,518.02
2019-01-27T09:16:27.545Z,523.57
2019-01-27T09:17:34.610Z,517.00
2019-01-27T09:18:27.534Z,518.45
2019-01-27T09:19:27.517Z,518.84
2019-01-27T09:20:28.141Z,519.66
2019-01-27T09:21:27.477Z,519.87
2019-01-27T09:22:27.497Z,515.26
2019-01-27T09:23:27.461Z,512.77
2019-01-27T09:24:27.490Z,519.46
2019-01-27T09:25:27.540Z,520.63
2019-01-27T09:26:27.436Z,517.70
2019-01-27T09:27:27.424Z,517.73
2019-01-27T09:28:27.427Z,515.74
2019-01-27T09:29:27.408Z,518.37
2019-01-27T09:30:27.427Z,520.12
2019-01-27T09:31:27.370Z,521.17
2019-01-27T09:32:27.384Z,517.33
2019-01-27T09:33:27.363Z,515.89
2019-01-27T09:34:27.345Z,517.13
2019-01-27T09:35:27.333Z,514.83
2019-01-27T09:36:27.331Z,517.69
2019-01-27T09:37:27.310Z,512.40
2019-01-27T09:38:27.314Z,519.13
2019-01-27T09:39:27.297Z,518.75
2019-01-27T09:40:27.290Z,515.05
2019-01-27T09:41:27.279Z,510.92
2019-01-27T09:42:27.280Z,518.94
2019-01-27T09:43:28.911Z,512.89
2019-01-27T09:44:27.244Z,515.70
2019-01-27T09:45:27.222Z,516.46
2019-01-27T09:46:27.220Z,516.80
2019-01-27T09:47:27.213Z,516.54
2019-01-27T09:48:27.218Z,521.36
2019-01-27T09:49:27.183Z,516.34
2019-01-27T09:50:27.189Z,510.07
2019-01-27T09:51:27.872Z,522.60
2019-01-27T09:52:27.159Z,513.82
2019-01-27T09:53:27.168Z,519.26
2019-01-27T09:54:27.151Z,520.03
2019-01-27T09:55:27.128Z,515.89
2019-01-27T09:56:27.113Z,519.57
2019-01-27T09:57:27.122Z,502.51
2019-01-27T09:58:27.109Z,522.05
2019-01-27T09:59:27.089Z,514.15
2019-01-27T10:00:27.071Z,517.02
2019-01-27T10:01:27.065Z,514.55
2019-01-27T10:02:27.050Z,515.74
2019-01-27T10:03:27.059Z,509.69
2019-01-27T10:04:27.038Z,519.26
2019-01-27T10:05:27.025Z,511.84
2019-01-27T10:06:27.035Z,514.14
2019-01-27T10:07:27.014Z,510.82
2019-01-27T10:08:27.020Z,515.11
2019-01-27T10:09:26.972Z,514.21
2019-01-27T10:10:26.959Z,519.08
2019-01-27T10:11:26.958Z,515.51
2019-01-27T10:12:26.968Z,516.85
2019-01-27T10:13:26.968Z,512.33
2019-01-27T10:14:26.927Z,518.99
2019-01-27T10:15:26.921Z,513.54
2019-01-27T10:16:26.912Z,514.42
2019-01-27T10:17:26.897Z,511.30
2019-01-27T10:18:26.916Z,519.60
2019-01-27T10:19:26.878Z,510.98
2019-01-27T10:20:26.858Z,514.31
2019-01-27T10:21:26.872Z,509.90
2019-01-27T10:22:27.668Z,510.85
2019-01-27T10:23:26.838Z,514.61
2019-01-27T10:24:26.831Z,516.43
2019-01-27T10:25:26.815Z,518.09
2019-01-27T10:26:26.806Z,513.04
2019-01-27T10:27:26.791Z,513.65
2019-01-27T10:28:26.810Z,516.85
2019-01-27T10:29:26.786Z,509.85
2019-01-27T10:30:26.773Z,514.48
2019-01-27T10:31:26.784Z,516.75
2019-01-27T10:32:26.740Z,515.97
2019-01-27T10:33:26.773Z,515.99
2019-01-27T10:34:26.725Z,516.71
2019-01-27T10:35:26.729Z,519.24
2019-01-27T10:36:26.711Z,516.65
2019-01-27T10:37:26.691Z,509.93
2019-01-27T10:38:26.693Z,510.55
2019-01-27T10:39:26.664Z,510.72
2019-01-27T10:40:26.657Z,519.66
2019-01-27T10:41:26.650Z,515.38
2019-01-27T10:42:26.650Z,511.52
2019-01-27T10:43:26.650Z,514.46
2019-01-27T10:44:26.616Z,512.93
2019-01-27T10:45:26.606Z,515.13
2019-01-27T10:46:26.593Z,510.32
2019-01-27T10:47:26.581Z,514.54
2019-01-27T10:48:26.587Z,514.63
2019-01-27T10:49:26.557Z,511.83
2019-01-27T10:50:26.558Z,515.52
2019-01-27T10:51:26.544Z,514.85
2019-01-27T10:52:26.520Z,523.79
2019-01-27T10:53:26.532Z,511.32
2019-01-27T10:54:26.509Z,520.44
2019-01-27T10:55:26.484Z,520.44
2019-01-27T10:56:26.473Z,517.88
2019-01-27T10:57:26.474Z,513.19
2019-01-27T10:58:26.484Z,513.37
2019-01-27T10:59:26.440Z,514.26
2019-01-27T11:00:26.440Z,515.64
2019-01-27T11:01:26.447Z,513.04
2019-01-27T11:02:26.429Z,516.45
2019-01-27T11:03:26.418Z,513.35
2019-01-27T11:04:26.391Z,518.39
2019-01-27T11:05:26.390Z,522.14
2019-01-27T11:06:34.439Z,518.38
2019-01-27T11:07:26.364Z,508.29
2019-01-27T11:08:26.362Z,516.77
2019-01-27T11:09:26.344Z,519.03
2019-01-27T11:10:34.426Z,526.16
2019-01-27T11:11:26.323Z,513.77
2019-01-27T11:12:26.326Z,523.63
2019-01-27T11:13:26.327Z,518.36
2019-01-27T11:14:33.339Z,508.86
2019-01-27T11:15:26.308Z,522.42
2019-01-27T11:16:26.278Z,515.15
2019-01-27T11:17:26.251Z,513.71
2019-01-27T11:18:27.241Z,513.55
2019-01-27T11:19:26.243Z,515.14
2019-01-27T11:20:26.228Z,515.36
2019-01-27T11:21:26.211Z,519.33
2019-01-27T11:22:26.474Z,512.76
2019-01-27T11:23:26.247Z,517.60
2019-01-27T11:24:26.197Z,534.92
2019-01-27T11:25:26.185Z,526.56
2019-01-27T11:26:26.163Z,522.84
2019-01-27T11:27:32.831Z,522.66
2019-01-27T11:28:27.170Z,517.99
2019-01-27T11:29:26.129Z,521.65
2019-01-27T11:30:26.128Z,516.14
2019-01-27T11:31:26.125Z,519.41
2019-01-27T11:32:26.101Z,520.52
2019-01-27T11:33:26.103Z,513.33
2019-01-27T11:34:26.096Z,524.09
2019-01-27T11:35:26.070Z,518.30
2019-01-27T11:36:26.068Z,521.92
2019-01-27T11:37:26.057Z,511.88
2019-01-27T11:38:26.047Z,522.49
2019-01-27T11:39:26.054Z,514.11
2019-01-27T11:40:26.022Z,525.76
2019-01-27T11:41:26.014Z,519.18
2019-01-27T11:42:26.011Z,517.77
2019-01-27T11:43:25.994Z,519.35
2019-01-27T11:44:25.982Z,524.49
2019-01-27T11:45:26.057Z,514.48
2019-01-27T11:46:25.979Z,514.08
2019-01-27T11:47:25.941Z,516.35
2019-01-27T11:48:25.989Z,524.84
2019-01-27T11:49:25.956Z,518.78
2019-01-27T11:50:25.914Z,510.24
2019-01-27T11:51:25.922Z,522.40
2019-01-27T11:52:25.898Z,522.82
2019-01-27T11:53:25.894Z,516.40
2019-01-27T11:54:25.901Z,515.49
2019-01-27T11:55:25.863Z,519.16
2019-01-27T11:56:25.851Z,512.18
2019-01-27T11:57:25.833Z,521.24
2019-01-27T11:58:25.826Z,521.96
2019-01-27T11:59:25.831Z,525.04
2019-01-27T12:00:25.803Z,516.87
2019-01-27T12:01:25.801Z,522.51
2019-01-27T12:02:25.793Z,512.15
2019-01-27T12:03:25.780Z,507.35
2019-01-27T12:04:25.771Z,519.56
2019-01-27T12:05:25.759Z,510.90
2019-01-27T12:06:25.747Z,524.74
2019-01-27T12:07:25.731Z,522.66
2019-01-27T12:08:25.719Z,517.99
2019-01-27T12:09:25.717Z,512.97
2019-01-27T12:10:25.694Z,517.68
2019-01-27T12:11:25.696Z,520.35
2019-01-27T12:12:25.674Z,513.20
2019-01-27T12:13:25.655Z,519.88
2019-01-27T12:14:25.662Z,519.81
2019-01-27T12:15:25.655Z,524.24
2019-01-27T12:16:25.650Z,513.64
2019-01-27T12:17:25.633Z,514.93
2019-01-27T12:18:25.615Z,520.55
2019-01-27T12:19:25.622Z,519.90
2019-01-27T12:20:25.586Z,524.38
2019-01-27T12:21:25.594Z,520.03
2019-01-27T12:22:25.580Z,523.96
2019-01-27T12:23:25.568Z,521.51
2019-01-27T12:24:25.577Z,515.69
2019-01-27T12:25:25.550Z,512.36
2019-01-27T12:26:25.545Z,506.33
2019-01-27T12:27:25.529Z,523.65
2019-01-27T12:28:25.516Z,512.95
2019-01-27T12:29:25.653Z,520.08